Time;durP1;ratioP1;P1;durP2;ratioP2;P2;SDS_P1;SDS_P2;PMS_P1;PMS_P2;Temp;Humidity;BMP_temperature;BMP_pressure;BME280_temperature;BME280_humidity;BME280_pressure;Samples;Min_cycle;Max_cycle;Signal;HPM_P1;HPM_P2
2022/12/30 00:00:36;;;;;;;1.30;0.67;;;8.90;63.20;;;;;;5044261;28;46280;-65
2022/12/30 00:03:02;;;;;;;1.20;0.70;;;8.70;64.30;;;;;;5050843;28;46415;-66
2022/12/30 00:05:27;;;;;;;1.00;0.60;;;8.70;64.30;;;;;;5046407;28;45938;-66
2022/12/30 00:07:53;;;;;;;1.50;0.60;;;8.50;64.20;;;;;;5049593;28;46436;-66
2022/12/30 00:10:19;;;;;;;1.30;0.70;;;8.00;65.60;;;;;;5047259;28;46615;-66
2022/12/30 00:35:15;;;;;;;1.40;0.60;;;7.30;67.00;;;;;;5048486;28;46320;-65
2022/12/30 00:37:41;;;;;;;1.30;0.60;;;7.20;67.20;;;;;;5045921;28;46514;-66
2022/12/30 00:40:07;;;;;;;1.20;0.60;;;7.30;67.10;;;;;;5050789;28;46804;-65
2022/12/30 00:45:17;;;;;;;1.90;0.60;;;7.30;66.80;;;;;;5046530;28;46580;-66
2022/12/30 00:47:44;;;;;;;1.10;0.60;;;7.30;66.50;;;;;;5047696;28;46373;-65
2022/12/30 00:58:22;;;;;;;1.00;0.50;;;7.40;65.90;;;;;;5044017;28;46410;-65
2022/12/30 01:00:48;;;;;;;3.20;0.70;;;7.40;65.80;;;;;;5044745;28;46263;-65
2022/12/30 01:03:14;;;;;;;2.00;0.80;;;7.30;65.80;;;;;;5044846;28;46447;-66
2022/12/30 01:05:40;;;;;;;1.10;0.60;;;7.40;65.70;;;;;;5046951;28;46406;-66
2022/12/30 01:08:06;;;;;;;4.10;1.43;;;7.40;65.70;;;;;;5047241;28;46515;-66
2022/12/30 01:10:31;;;;;;;9.00;0.63;;;7.40;66.50;;;;;;5048091;28;46678;-66
2022/12/30 01:12:57;;;;;;;1.20;0.60;;;7.50;64.70;;;;;;5049325;28;46402;-66
2022/12/30 01:15:23;;;;;;;0.90;0.50;;;7.50;64.40;;;;;;5047126;28;46373;-66
2022/12/30 01:17:49;;;;;;;3.57;0.70;;;7.50;64.10;;;;;;5047532;28;46452;-66
2022/12/30 01:20:15;;;;;;;1.00;0.60;;;7.60;63.80;;;;;;5044695;28;46002;-66
2022/12/30 01:22:41;;;;;;;0.90;0.60;;;7.60;63.50;;;;;;5048851;28;45820;-66
2022/12/30 01:25:07;;;;;;;1.00;0.60;;;7.60;63.30;;;;;;5048110;28;46369;-66
2022/12/30 01:27:32;;;;;;;3.17;0.70;;;7.70;63.40;;;;;;5046789;28;46307;-66
2022/12/30 01:29:59;;;;;;;3.57;0.70;;;7.60;63.30;;;;;;5045207;28;46885;-65
2022/12/30 01:32:27;;;;;;;1.00;0.60;;;7.70;63.40;;;;;;5046411;28;46393;-66
2022/12/30 01:34:54;;;;;;;1.60;0.73;;;7.60;63.30;;;;;;5044296;28;46696;-66
2022/12/30 01:37:20;;;;;;;1.40;0.63;;;7.70;63.40;;;;;;5048117;28;46370;-66
2022/12/30 01:39:46;;;;;;;1.40;0.60;;;7.70;63.40;;;;;;5050363;28;47010;-66
2022/12/30 01:42:19;;;;;;;1.00;0.60;;;7.70;63.50;;;;;;5047285;28;46557;-66
2022/12/30 01:45:19;;;;;;;1.33;0.67;;;7.70;63.40;;;;;;5047610;28;46378;-65
2022/12/30 01:48:16;;;;;;;1.00;0.50;;;7.60;63.30;;;;;;5050498;28;46463;-66
2022/12/30 01:51:09;;;;;;;1.20;0.70;;;7.60;63.30;;;;;;5046267;28;46405;-65
2022/12/30 01:53:42;;;;;;;1.00;0.50;;;7.60;62.30;;;;;;5045015;28;46903;-65
2022/12/30 01:56:10;;;;;;;1.30;0.60;;;7.60;63.40;;;;;;5045808;28;45945;-65
2022/12/30 01:58:43;;;;;;;1.20;0.60;;;7.50;63.20;;;;;;5048234;28;46434;-65
2022/12/30 02:01:09;;;;;;;1.27;0.60;;;7.50;63.20;;;;;;5042642;28;46334;-65
2022/12/30 02:03:46;;;;;;;1.00;0.50;;;7.50;63.20;;;;;;5046248;28;46407;-65
2022/12/30 02:06:21;;;;;;;1.40;0.70;;;7.50;63.20;;;;;;5044874;28;46322;-65
2022/12/30 02:08:47;;;;;;;1.73;0.80;;;7.60;63.30;;;;;;5045670;28;46504;-66
2022/12/30 02:11:12;;;;;;;1.20;0.60;;;7.50;62.90;;;;;;5044582;28;46532;-66
2022/12/30 02:13:38;;;;;;;2.40;0.80;;;7.60;62.80;;;;;;5045954;28;46451;-66
2022/12/30 02:16:15;;;;;;;2.37;0.60;;;7.50;62.90;;;;;;5044298;28;46532;-65
2022/12/30 02:19:11;;;;;;;1.00;0.60;;;7.50;62.80;;;;;;5046267;28;46223;-66
2022/12/30 02:21:48;;;;;;;1.00;0.60;;;7.50;62.70;;;;;;5046494;28;46380;-66
2022/12/30 02:24:50;;;;;;;1.67;0.60;;;7.50;62.60;;;;;;5043874;28;46629;-66
2022/12/30 02:27:30;;;;;;;1.10;0.60;;;7.50;62.60;;;;;;5019002;28;46681;-65
2022/12/30 02:30:13;;;;;;;1.30;0.70;;;7.50;62.30;;;;;;5046103;28;46443;-66
2022/12/30 02:32:52;;;;;;;3.40;0.60;;;7.50;62.60;;;;;;5047213;28;46914;-66
2022/12/30 02:35:49;;;;;;;1.40;0.60;;;7.40;63.10;;;;;;5044449;28;46377;-65
2022/12/30 02:38:20;;;;;;;1.10;0.60;;;7.40;63.20;;;;;;5011139;28;47241;-66
2022/12/30 02:46:44;;;;;;;1.63;0.67;;;7.40;63.20;;;;;;5044559;28;46417;-66
2022/12/30 02:49:12;;;;;;;1.20;0.60;;;7.30;63.10;;;;;;5043159;28;46374;-65
2022/12/30 02:54:25;;;;;;;1.63;0.70;;;7.20;63.00;;;;;;5045212;28;46628;-66
2022/12/30 02:56:52;;;;;;;1.00;0.60;;;7.20;63.00;;;;;;5047766;28;46293;-66
2022/12/30 03:05:45;;;;;;;1.10;0.60;;;7.10;62.90;;;;;;5042546;28;46434;-65
2022/12/30 03:08:37;;;;;;;1.20;0.70;;;7.10;62.90;;;;;;5043110;28;46430;-66
2022/12/30 03:11:16;;;;;;;3.03;0.70;;;7.00;62.80;;;;;;5047980;28;46438;-65
2022/12/30 03:13:57;;;;;;;1.23;0.60;;;7.00;62.90;;;;;;5044702;28;46579;-65
2022/12/30 03:16:35;;;;;;;1.07;0.60;;;7.00;63.20;;;;;;5048282;28;46422;-65
2022/12/30 03:19:04;;;;;;;1.87;0.60;;;7.00;63.40;;;;;;5045695;28;46335;-66
2022/12/30 03:21:33;;;;;;;3.37;0.80;;;6.90;63.50;;;;;;5043134;28;46368;-65
2022/12/30 03:27:04;;;;;;;2.17;0.83;;;6.80;64.50;;;;;;5045484;28;46800;-65
2022/12/30 03:29:50;;;;;;;2.20;0.80;;;6.80;64.60;;;;;;5048704;28;46363;-65
2022/12/30 03:32:18;;;;;;;1.20;0.60;;;6.80;64.70;;;;;;5043953;28;45893;-65
2022/12/30 03:34:45;;;;;;;1.07;0.60;;;6.90;64.60;;;;;;5048468;28;46464;-66
2022/12/30 03:37:33;;;;;;;2.20;0.70;;;6.90;64.60;;;;;;5048175;28;46457;-65
2022/12/30 03:40:21;;;;;;;1.63;0.60;;;6.80;64.30;;;;;;5050899;28;46482;-66
2022/12/30 03:42:48;;;;;;;3.43;0.80;;;6.90;64.30;;;;;;5048265;28;46795;-66
2022/12/30 03:45:15;;;;;;;2.50;0.70;;;6.80;64.50;;;;;;5048692;28;46347;-65
2022/12/30 03:47:40;;;;;;;1.00;0.60;;;6.80;64.40;;;;;;5048497;28;47183;-66
2022/12/30 03:50:06;;;;;;;1.83;0.93;;;6.80;64.40;;;;;;5048002;28;46474;-66
2022/12/30 03:52:32;;;;;;;1.43;0.60;;;6.80;64.60;;;;;;5047648;28;46402;-65
2022/12/30 03:54:58;;;;;;;1.10;0.60;;;6.80;64.70;;;;;;5049034;28;45807;-66
2022/12/30 03:57:24;;;;;;;1.20;0.70;;;6.80;64.70;;;;;;5045914;28;48029;-66
2022/12/30 03:59:50;;;;;;;1.00;0.60;;;6.70;65.00;;;;;;5047385;28;46293;-66
2022/12/30 04:02:16;;;;;;;3.37;0.90;;;6.70;65.10;;;;;;5048013;28;46377;-65
2022/12/30 04:04:41;;;;;;;0.90;0.60;;;6.70;65.20;;;;;;5050744;28;46529;-66
2022/12/30 04:07:07;;;;;;;1.50;0.80;;;6.70;65.30;;;;;;5047122;28;47149;-66
2022/12/30 04:09:32;;;;;;;3.33;0.63;;;6.70;65.50;;;;;;5048707;28;46414;-66
2022/12/30 04:11:58;;;;;;;0.93;0.53;;;6.50;65.30;;;;;;5050548;28;46384;-66
2022/12/30 04:14:24;;;;;;;1.47;0.70;;;6.70;65.20;;;;;;5048448;28;46309;-65
2022/12/30 04:16:49;;;;;;;2.07;0.80;;;6.70;65.00;;;;;;5046952;28;48337;-66
2022/12/30 04:19:15;;;;;;;1.43;0.70;;;6.70;65.00;;;;;;5045943;28;46698;-66
2022/12/30 04:21:40;;;;;;;1.47;0.70;;;6.70;64.90;;;;;;5049705;28;46219;-65
2022/12/30 04:24:06;;;;;;;1.33;0.60;;;6.70;64.90;;;;;;5044584;28;46407;-66
2022/12/30 04:26:32;;;;;;;1.10;0.70;;;6.70;64.70;;;;;;5046783;28;46677;-66
2022/12/30 04:28:57;;;;;;;1.00;0.60;;;6.70;64.80;;;;;;5045619;28;46484;-65
2022/12/30 04:31:23;;;;;;;1.43;0.63;;;6.60;64.70;;;;;;5047126;28;46559;-66
2022/12/30 04:33:50;;;;;;;1.10;0.60;;;6.60;63.70;;;;;;5047981;28;46499;-65
2022/12/30 04:36:16;;;;;;;1.20;0.60;;;6.60;64.70;;;;;;5048724;28;46889;-66
2022/12/30 04:38:42;;;;;;;1.40;0.70;;;6.60;64.90;;;;;;5050715;28;46801;-66
2022/12/30 04:41:07;;;;;;;1.20;0.60;;;6.60;64.70;;;;;;5050651;28;46338;-66
2022/12/30 04:43:33;;;;;;;2.40;0.70;;;6.60;64.70;;;;;;5048599;28;46376;-65
2022/12/30 04:45:58;;;;;;;1.43;0.60;;;6.60;64.90;;;;;;5043764;28;49397;-66
2022/12/30 04:48:24;;;;;;;1.90;0.70;;;6.50;64.80;;;;;;5051579;28;46317;-66
2022/12/30 04:50:50;;;;;;;1.87;0.73;;;6.50;65.00;;;;;;5044824;28;46368;-66
2022/12/30 04:53:15;;;;;;;1.10;0.60;;;6.50;65.00;;;;;;5050884;28;46644;-66
2022/12/30 04:55:41;;;;;;;1.60;0.60;;;6.50;65.00;;;;;;5047431;28;46535;-66
2022/12/30 04:58:07;;;;;;;1.10;0.60;;;6.50;65.00;;;;;;5043621;28;46449;-65
2022/12/30 05:00:33;;;;;;;1.00;0.60;;;6.60;64.70;;;;;;5049062;28;46505;-65
2022/12/30 05:02:59;;;;;;;1.27;0.60;;;6.50;64.80;;;;;;5047147;28;46477;-66
2022/12/30 05:05:24;;;;;;;2.07;0.80;;;6.50;65.10;;;;;;5046693;28;46489;-66
2022/12/30 05:07:50;;;;;;;1.30;0.60;;;6.40;65.30;;;;;;5045005;28;46409;-65
2022/12/30 05:10:16;;;;;;;1.27;0.60;;;6.40;65.50;;;;;;5050153;28;46326;-66
2022/12/30 05:12:41;;;;;;;1.50;1.00;;;6.40;65.70;;;;;;5044676;28;46652;-65
2022/12/30 05:15:08;;;;;;;1.03;0.60;;;6.40;65.60;;;;;;5045602;28;46422;-66
2022/12/30 05:17:33;;;;;;;0.90;0.57;;;6.40;65.60;;;;;;5047047;28;46360;-66
2022/12/30 05:19:59;;;;;;;0.90;0.60;;;6.40;65.50;;;;;;5045130;28;46251;-66
2022/12/30 05:22:25;;;;;;;2.20;0.70;;;6.30;65.50;;;;;;5045448;28;46582;-66
2022/12/30 05:27:35;;;;;;;0.90;0.50;;;6.20;65.70;;;;;;5047321;28;46425;-66
2022/12/30 05:30:01;;;;;;;1.27;0.70;;;6.20;65.80;;;;;;5042284;28;45957;-66
2022/12/30 05:32:26;;;;;;;1.00;0.70;;;6.20;65.70;;;;;;5048729;28;46640;-66
2022/12/30 05:34:52;;;;;;;1.00;0.60;;;6.10;65.90;;;;;;5042827;28;47192;-66
2022/12/30 05:37:17;;;;;;;2.60;0.60;;;6.00;66.20;;;;;;5047531;28;46394;-66
2022/12/30 05:39:43;;;;;;;1.00;0.60;;;5.90;66.40;;;;;;5049634;28;46466;-65
2022/12/30 05:42:08;;;;;;;1.00;0.60;;;5.80;66.80;;;;;;5045171;28;46620;-66
2022/12/30 05:44:34;;;;;;;2.43;0.70;;;5.80;67.00;;;;;;5046872;28;46472;-66
2022/12/30 05:47:00;;;;;;;1.10;0.60;;;5.70;67.20;;;;;;5044918;28;45911;-66
2022/12/30 05:49:25;;;;;;;2.40;0.70;;;5.60;67.10;;;;;;5048027;28;45796;-66
2022/12/30 05:51:51;;;;;;;1.23;0.80;;;5.50;67.30;;;;;;5042705;28;46329;-66
2022/12/30 05:54:17;;;;;;;1.10;0.60;;;5.40;67.60;;;;;;5048046;28;46365;-66
2022/12/30 05:56:42;;;;;;;1.93;0.60;;;5.30;67.80;;;;;;5046038;28;46402;-66
2022/12/30 05:59:09;;;;;;;1.07;0.63;;;5.30;68.10;;;;;;5048110;28;45798;-66
2022/12/30 06:01:35;;;;;;;1.20;0.70;;;5.20;68.30;;;;;;5044657;28;46529;-66
2022/12/30 06:04:01;;;;;;;1.70;0.90;;;5.10;68.40;;;;;;5042744;28;46682;-66
2022/12/30 06:06:27;;;;;;;1.50;0.80;;;5.00;68.50;;;;;;5047246;28;46442;-67
2022/12/30 06:08:52;;;;;;;4.80;0.90;;;4.90;68.60;;;;;;5045623;28;46570;-65
2022/12/30 06:11:18;;;;;;;1.10;0.80;;;4.90;68.80;;;;;;5047655;28;46290;-66
2022/12/30 06:13:44;;;;;;;1.60;1.00;;;4.80;68.90;;;;;;5046340;28;46435;-66
2022/12/30 06:16:10;;;;;;;1.57;0.90;;;4.80;68.90;;;;;;5046533;28;46418;-65
2022/12/30 06:18:35;;;;;;;2.47;1.13;;;4.70;68.90;;;;;;5047078;28;46408;-65
2022/12/30 06:21:01;;;;;;;1.70;1.20;;;4.70;68.90;;;;;;5046549;28;46367;-65
2022/12/30 06:23:27;;;;;;;2.07;1.33;;;4.60;68.90;;;;;;5045350;28;46387;-66
2022/12/30 06:25:57;;;;;;;1.53;0.93;;;4.60;68.80;;;;;;5048894;28;46333;-66
2022/12/30 06:28:25;;;;;;;1.23;0.80;;;4.50;68.80;;;;;;5046252;28;46459;-66
2022/12/30 06:30:51;;;;;;;1.57;1.00;;;4.50;68.80;;;;;;5045482;28;46321;-65
2022/12/30 06:33:17;;;;;;;1.40;0.90;;;4.40;68.80;;;;;;5038989;28;49232;-66
2022/12/30 06:35:44;;;;;;;1.50;0.90;;;4.40;69.00;;;;;;5043838;28;46409;-66
2022/12/30 06:38:09;;;;;;;1.47;0.80;;;4.30;69.00;;;;;;5045808;28;46709;-66
2022/12/30 06:40:35;;;;;;;1.97;0.87;;;4.30;69.00;;;;;;5043841;28;46709;-66
2022/12/30 06:43:00;;;;;;;1.30;0.77;;;4.20;69.00;;;;;;5044572;28;46425;-64
2022/12/30 06:45:26;;;;;;;1.10;0.73;;;4.20;69.10;;;;;;5044440;28;46504;-65
2022/12/30 06:47:52;;;;;;;2.23;0.90;;;4.10;69.10;;;;;;5045868;28;46657;-66
2022/12/30 06:50:18;;;;;;;1.63;0.90;;;4.10;69.30;;;;;;5045306;28;46666;-65
2022/12/30 06:52:43;;;;;;;1.30;0.70;;;4.00;69.30;;;;;;5046438;28;46385;-65
2022/12/30 06:55:09;;;;;;;3.17;0.80;;;4.00;69.40;;;;;;5041485;28;46453;-65
2022/12/30 06:57:35;;;;;;;4.43;0.80;;;3.90;69.50;;;;;;5042115;28;45902;-66
2022/12/30 07:00:02;;;;;;;2.37;1.00;;;3.80;69.70;;;;;;5045768;28;45917;-66
2022/12/30 07:02:27;;;;;;;0.97;0.67;;;3.70;69.70;;;;;;5042865;28;48430;-65
2022/12/30 07:04:53;;;;;;;1.47;1.00;;;3.70;69.80;;;;;;5040445;28;46349;-67
2022/12/30 07:07:18;;;;;;;1.83;1.00;;;3.60;69.80;;;;;;5037016;28;46425;-66
2022/12/30 07:09:44;;;;;;;4.73;2.90;;;3.60;69.80;;;;;;5042043;28;46703;-66
2022/12/30 07:12:10;;;;;;;4.23;2.80;;;3.50;69.90;;;;;;5042212;28;47020;-65
2022/12/30 07:14:35;;;;;;;4.47;3.10;;;3.50;70.10;;;;;;5045339;28;46572;-65
2022/12/30 07:17:01;;;;;;;2.87;1.63;;;3.40;70.00;;;;;;5048132;28;46581;-65
2022/12/30 07:19:27;;;;;;;2.13;1.50;;;3.50;69.90;;;;;;5045744;28;46535;-65
2022/12/30 07:21:54;;;;;;;2.10;1.17;;;3.50;69.70;;;;;;5046808;28;46459;-65
2022/12/30 07:24:20;;;;;;;1.70;1.10;;;3.60;69.60;;;;;;5042649;28;46501;-65
2022/12/30 07:26:46;;;;;;;1.70;0.88;;;3.60;69.40;;;;;;5044198;28;46542;-65
2022/12/30 07:29:12;;;;;;;2.53;1.23;;;3.60;69.40;;;;;;5040401;28;46468;-64
2022/12/30 07:31:39;;;;;;;2.03;1.20;;;3.70;69.40;;;;;;5041783;28;46425;-65
2022/12/30 07:34:05;;;;;;;2.40;1.48;;;3.70;69.30;;;;;;5040873;28;46438;-65
2022/12/30 07:36:32;;;;;;;2.55;1.58;;;3.70;69.40;;;;;;5044143;28;46702;-65
2022/12/30 07:38:59;;;;;;;2.60;1.57;;;3.70;69.00;;;;;;5041587;28;46778;-65
2022/12/30 07:41:26;;;;;;;4.50;1.80;;;3.70;69.10;;;;;;5042604;28;46443;-65
2022/12/30 07:43:52;;;;;;;16.23;7.40;;;3.80;68.10;;;;;;5045609;28;46492;-65
2022/12/30 07:46:18;;;;;;;26.20;11.00;;;3.60;68.90;;;;;;5046919;28;46498;-65
2022/12/30 07:48:43;;;;;;;22.63;9.20;;;3.80;69.10;;;;;;5042851;28;46578;-65
2022/12/30 07:51:14;;;;;;;18.23;9.27;;;3.90;69.10;;;;;;5047569;28;46408;-65
2022/12/30 07:53:41;;;;;;;25.02;9.82;;;3.80;68.90;;;;;;5042474;28;46511;-65
2022/12/30 07:56:08;;;;;;;16.08;7.25;;;3.90;68.70;;;;;;5046096;28;46380;-66
2022/12/30 07:58:34;;;;;;;12.07;6.03;;;3.90;68.90;;;;;;5042690;28;46764;-65
2022/12/30 08:01:13;;;;;;;9.60;4.40;;;3.80;68.80;;;;;;5045973;28;47524;-64
2022/12/30 08:03:40;;;;;;;7.55;3.88;;;3.80;68.90;;;;;;5042082;28;46000;-64
2022/12/30 08:06:12;;;;;;;4.40;2.53;;;3.90;69.30;;;;;;5043548;28;46278;-65
2022/12/30 08:08:38;;;;;;;7.23;3.20;;;3.90;69.50;;;;;;5044832;28;46782;-63
2022/12/30 08:11:04;;;;;;;47.00;19.17;;;3.90;69.50;;;;;;5043560;28;47884;-64
2022/12/30 08:13:32;;;;;;;56.67;21.40;;;4.00;69.50;;;;;;5045401;28;46457;-64
2022/12/30 08:15:58;;;;;;;13.98;5.95;;;4.10;69.30;;;;;;5045178;28;46455;-64
2022/12/30 08:18:23;;;;;;;29.20;12.70;;;4.20;69.20;;;;;;5048279;28;46718;-64
2022/12/30 08:20:49;;;;;;;22.47;8.00;;;4.50;69.20;;;;;;5047722;28;47024;-64
2022/12/30 08:23:14;;;;;;;14.40;7.30;;;4.30;68.80;;;;;;5048063;28;46425;-65
2022/12/30 08:25:40;;;;;;;16.93;9.03;;;4.40;68.80;;;;;;5049319;28;46382;-64
2022/12/30 08:28:06;;;;;;;13.03;7.80;;;4.40;68.70;;;;;;5047256;28;46348;-64
2022/12/30 08:30:32;;;;;;;9.03;6.03;;;4.50;68.70;;;;;;5046737;28;48454;-64
2022/12/30 08:32:57;;;;;;;5.63;3.97;;;4.50;68.80;;;;;;5044994;28;46575;-64
2022/12/30 08:35:23;;;;;;;8.33;3.67;;;4.50;68.80;;;;;;5046085;28;45822;-64
2022/12/30 08:37:48;;;;;;;7.43;4.60;;;4.60;68.90;;;;;;5045801;28;47033;-66
2022/12/30 08:40:14;;;;;;;6.77;3.77;;;4.70;68.90;;;;;;5046352;28;46491;-67
2022/12/30 08:42:42;;;;;;;9.43;5.00;;;4.80;68.60;;;;;;5045805;28;46551;-66
2022/12/30 08:45:08;;;;;;;9.40;4.57;;;4.90;68.50;;;;;;5044373;28;46436;-65
2022/12/30 08:47:34;;;;;;;11.67;5.17;;;5.00;68.20;;;;;;5044573;28;46694;-64
2022/12/30 08:50:00;;;;;;;4.33;2.80;;;5.10;68.10;;;;;;5045731;28;46751;-65
2022/12/30 08:52:27;;;;;;;5.03;2.67;;;5.20;67.90;;;;;;5048042;28;45767;-64
2022/12/30 08:54:53;;;;;;;6.87;3.63;;;5.30;67.80;;;;;;5045224;28;46421;-67
2022/12/30 08:57:18;;;;;;;5.77;2.43;;;5.40;67.90;;;;;;5045674;28;46644;-65
2022/12/30 08:59:44;;;;;;;3.87;1.93;;;5.50;68.00;;;;;;5046804;28;46342;-64
2022/12/30 09:02:13;;;;;;;6.10;3.63;;;5.60;67.90;;;;;;5049101;28;46455;-64
2022/12/30 09:04:39;;;;;;;1.93;1.60;;;5.70;67.80;;;;;;5048824;28;46463;-65
2022/12/30 09:07:04;;;;;;;14.47;4.70;;;5.90;67.90;;;;;;5050233;28;46499;-64
2022/12/30 09:09:30;;;;;;;7.77;3.93;;;5.90;67.70;;;;;;5046611;28;46442;-64
2022/12/30 09:11:56;;;;;;;7.07;2.50;;;6.10;67.80;;;;;;5045617;28;46453;-66
2022/12/30 09:14:22;;;;;;;2.60;1.60;;;6.10;67.60;;;;;;5043103;28;46997;-63
2022/12/30 09:16:48;;;;;;;5.30;1.80;;;6.20;67.60;;;;;;5040659;28;46393;-64
2022/12/30 09:19:15;;;;;;;3.70;1.90;;;6.30;67.60;;;;;;5045347;28;46409;-66
2022/12/30 09:21:41;;;;;;;2.70;1.53;;;6.30;67.60;;;;;;5046606;28;46342;-65
2022/12/30 09:24:06;;;;;;;7.83;1.57;;;6.40;67.60;;;;;;5045024;28;46358;-65
2022/12/30 09:26:33;;;;;;;2.33;1.40;;;6.50;67.60;;;;;;5043171;28;46412;-65
2022/12/30 09:28:59;;;;;;;3.33;1.33;;;6.60;67.60;;;;;;5044851;28;47014;-64
2022/12/30 09:31:25;;;;;;;1.60;0.90;;;6.70;67.50;;;;;;5045518;28;46392;-62
2022/12/30 09:33:51;;;;;;;1.30;1.00;;;6.90;66.20;;;;;;5046140;28;46722;-64
2022/12/30 09:36:18;;;;;;;2.10;1.20;;;6.90;67.10;;;;;;5044106;28;46599;-63
2022/12/30 09:38:44;;;;;;;2.03;0.90;;;7.00;66.90;;;;;;5043503;28;46679;-63
2022/12/30 09:43:14;;;;;;;1.73;0.73;;;7.10;66.80;;;;;;5045242;28;46527;-65
2022/12/30 09:44:38;;;;;;;1.47;0.80;;;7.20;66.80;;;;;;5048277;28;46427;-65
2022/12/30 09:47:13;;;;;;;1.60;1.10;;;7.30;66.90;;;;;;5040563;28;46449;-64
2022/12/30 09:49:47;;;;;;;2.30;1.00;;;7.30;66.90;;;;;;5046012;28;46417;-64
2022/12/30 09:52:19;;;;;;;1.70;1.00;;;7.40;67.00;;;;;;5043088;28;46724;-64
2022/12/30 09:54:52;;;;;;;2.80;0.70;;;7.50;66.90;;;;;;5046288;28;45876;-64
2022/12/30 09:57:31;;;;;;;3.33;0.90;;;7.50;66.90;;;;;;5045032;28;46401;-65
2022/12/30 10:00:05;;;;;;;1.83;1.00;;;7.60;66.90;;;;;;5044662;28;47371;-65
2022/12/30 10:02:53;;;;;;;1.13;0.70;;;7.60;67.00;;;;;;5045003;28;46390;-63
2022/12/30 10:05:30;;;;;;;1.97;1.10;;;7.70;66.80;;;;;;5045973;28;46570;-63
2022/12/30 10:08:03;;;;;;;2.30;1.13;;;7.80;66.70;;;;;;5045488;28;46421;-63
2022/12/30 10:10:56;;;;;;;4.33;1.30;;;7.90;66.60;;;;;;5043644;28;47558;-63
2022/12/30 10:13:32;;;;;;;2.00;1.07;;;7.90;66.60;;;;;;5036875;28;46852;-62
2022/12/30 10:16:24;;;;;;;5.10;2.47;;;7.90;66.60;;;;;;5040365;28;46411;-63
2022/12/30 10:19:02;;;;;;;2.63;1.10;;;7.90;67.90;;;;;;5027649;28;46680;-65
2022/12/30 10:21:40;;;;;;;1.90;1.07;;;8.00;66.70;;;;;;5043938;28;46871;-65
2022/12/30 10:24:30;;;;;;;1.80;1.20;;;8.00;66.60;;;;;;5045039;28;46418;-63
2022/12/30 10:27:13;;;;;;;1.33;0.87;;;8.10;66.50;;;;;;5044546;28;46463;-65
2022/12/30 10:29:41;;;;;;;2.50;1.03;;;8.10;66.50;;;;;;5045017;28;46463;-66
2022/12/30 10:32:16;;;;;;;1.80;1.20;;;8.10;66.50;;;;;;5042060;28;47142;-66
2022/12/30 10:34:44;;;;;;;2.03;1.30;;;8.20;66.40;;;;;;5042255;28;46412;-66
2022/12/30 10:37:33;;;;;;;2.33;1.27;;;8.20;66.40;;;;;;5045322;28;46439;-66
2022/12/30 10:39:59;;;;;;;1.87;1.03;;;8.30;66.40;;;;;;5044676;28;45937;-65
2022/12/30 10:42:46;;;;;;;2.30;1.10;;;8.30;66.40;;;;;;5044159;28;46956;-66
2022/12/30 10:45:38;;;;;;;2.13;1.20;;;8.40;66.00;;;;;;5041621;28;46404;-66
2022/12/30 10:48:19;;;;;;;1.40;0.80;;;8.40;65.90;;;;;;5048188;28;45942;-65
2022/12/30 10:50:46;;;;;;;1.93;1.20;;;8.50;65.80;;;;;;5048097;28;46889;-65
2022/12/30 10:53:18;;;;;;;1.63;1.00;;;8.70;65.80;;;;;;5043715;28;47948;-64
2022/12/30 10:55:57;;;;;;;3.00;1.40;;;8.50;65.50;;;;;;5041143;28;46466;-65
2022/12/30 10:58:41;;;;;;;2.23;1.10;;;8.60;65.40;;;;;;5044588;28;46325;-65
2022/12/30 11:01:16;;;;;;;1.77;1.07;;;8.70;65.40;;;;;;5043298;28;46466;-65
2022/12/30 11:03:47;;;;;;;1.83;1.03;;;8.70;65.20;;;;;;5047871;28;48011;-65
2022/12/30 11:06:30;;;;;;;2.37;1.17;;;8.80;65.20;;;;;;5044095;28;46302;-65
2022/12/30 11:09:11;;;;;;;1.77;0.80;;;8.80;64.60;;;;;;5046010;28;46452;-65
2022/12/30 11:14:42;;;;;;;2.33;1.10;;;8.90;64.50;;;;;;5044412;28;46179;-65
2022/12/30 11:17:29;;;;;;;1.70;1.00;;;8.90;64.50;;;;;;5044981;28;46629;-65
2022/12/30 11:20:00;;;;;;;1.90;1.00;;;8.90;64.40;;;;;;5044424;28;46474;-65
2022/12/30 11:22:28;;;;;;;1.97;1.00;;;9.00;64.60;;;;;;5046000;28;46588;-65
2022/12/30 11:25:14;;;;;;;2.60;0.90;;;9.00;64.60;;;;;;5042773;28;47300;-65
2022/12/30 11:27:53;;;;;;;2.50;1.30;;;9.00;64.10;;;;;;5047086;28;46698;-63
2022/12/30 11:30:28;;;;;;;1.30;0.80;;;9.00;64.10;;;;;;5043087;28;46496;-64
2022/12/30 11:32:55;;;;;;;1.97;1.13;;;9.10;64.10;;;;;;5042484;28;46315;-63
2022/12/30 11:35:43;;;;;;;1.50;1.00;;;9.10;63.90;;;;;;5045426;28;46937;-64
2022/12/30 11:38:27;;;;;;;2.40;1.03;;;9.20;63.60;;;;;;5041815;28;45919;-64
2022/12/30 11:40:53;;;;;;;1.87;0.80;;;9.20;63.20;;;;;;5044223;28;46675;-64
2022/12/30 11:43:20;;;;;;;1.90;1.00;;;9.20;63.10;;;;;;5045653;28;46556;-64
2022/12/30 11:46:03;;;;;;;2.20;1.10;;;9.30;63.10;;;;;;5043596;28;46490;-64
2022/12/30 11:48:36;;;;;;;3.03;1.00;;;9.30;62.90;;;;;;5042454;28;45841;-64
2022/12/30 11:51:04;;;;;;;2.67;1.00;;;9.40;62.80;;;;;;5048426;28;46625;-64
2022/12/30 11:53:35;;;;;;;3.30;0.90;;;9.40;62.80;;;;;;5048144;28;45803;-64
2022/12/30 11:56:01;;;;;;;3.00;1.10;;;9.40;62.70;;;;;;5048243;28;47130;-64
2022/12/30 11:58:31;;;;;;;2.00;1.00;;;9.40;62.50;;;;;;5047901;28;46487;-64
2022/12/30 12:01:03;;;;;;;3.07;1.20;;;9.40;62.50;;;;;;5045944;28;46187;-64
2022/12/30 12:03:29;;;;;;;3.53;0.90;;;9.30;62.20;;;;;;5046158;28;46636;-65
2022/12/30 12:06:11;;;;;;;2.03;1.07;;;9.40;62.20;;;;;;5048497;28;46519;-64
2022/12/30 12:08:45;;;;;;;3.13;1.57;;;9.40;62.20;;;;;;5047374;28;45915;-64
2022/12/30 12:11:17;;;;;;;2.37;1.50;;;9.40;62.30;;;;;;5048754;28;46682;-65
2022/12/30 12:14:20;;;;;;;1.83;1.00;;;9.40;62.20;;;;;;5046400;28;46402;-65
2022/12/30 12:17:11;;;;;;;1.53;0.93;;;9.40;63.20;;;;;;5045257;28;46961;-65
2022/12/30 12:19:51;;;;;;;1.33;0.80;;;9.40;61.90;;;;;;5044180;28;46416;-65
2022/12/30 12:22:44;;;;;;;2.10;1.07;;;9.40;61.60;;;;;;5046548;28;46449;-65
2022/12/30 12:25:26;;;;;;;1.70;0.90;;;9.40;61.30;;;;;;5044823;28;46489;-64
2022/12/30 12:27:53;;;;;;;1.77;1.03;;;9.50;61.30;;;;;;5046085;28;46079;-66
2022/12/30 12:30:20;;;;;;;3.07;0.87;;;9.40;61.10;;;;;;5047032;28;46436;-66
2022/12/30 12:33:00;;;;;;;3.70;1.90;;;9.40;61.00;;;;;;5045364;28;46434;-66
2022/12/30 12:35:56;;;;;;;1.97;1.00;;;9.50;60.90;;;;;;5040014;28;46478;-66
2022/12/30 12:38:48;;;;;;;1.87;1.13;;;9.50;60.60;;;;;;5047871;28;47052;-66
2022/12/30 12:41:23;;;;;;;4.63;1.70;;;9.50;60.50;;;;;;5049039;28;46434;-66
2022/12/30 12:43:57;;;;;;;3.67;1.30;;;9.50;60.40;;;;;;5046966;28;46516;-65
2022/12/30 12:46:39;;;;;;;3.87;1.77;;;9.50;60.30;;;;;;5045026;28;46352;-65
2022/12/30 12:49:32;;;;;;;5.30;1.43;;;9.60;60.10;;;;;;5045825;28;46540;-68
2022/12/30 12:52:26;;;;;;;2.10;1.30;;;9.70;60.00;;;;;;5044429;28;46501;-66
2022/12/30 12:55:13;;;;;;;1.70;0.90;;;9.70;59.50;;;;;;5044581;28;46421;-66
2022/12/30 12:58:07;;;;;;;2.73;1.27;;;9.60;59.40;;;;;;5048638;28;46770;-65
2022/12/30 13:00:39;;;;;;;1.97;1.10;;;9.60;59.40;;;;;;5044303;28;46377;-66
2022/12/30 13:03:31;;;;;;;2.60;1.30;;;9.60;59.20;;;;;;5045550;28;46485;-68
2022/12/30 13:06:30;;;;;;;6.33;1.17;;;9.60;59.00;;;;;;5043370;28;46003;-65
2022/12/30 13:09:36;;;;;;;1.70;1.00;;;9.60;58.80;;;;;;5046068;28;47529;-64
2022/12/30 13:12:10;;;;;;;4.10;1.77;;;9.60;58.80;;;;;;5044656;28;46218;-64
2022/12/30 13:14:39;;;;;;;2.80;1.30;;;9.60;58.80;;;;;;5046099;28;46543;-65
2022/12/30 13:17:16;;;;;;;2.20;1.30;;;9.60;58.80;;;;;;5044467;28;46519;-64
2022/12/30 13:19:53;;;;;;;2.03;1.20;;;9.60;58.60;;;;;;5047110;28;46698;-64
2022/12/30 13:22:24;;;;;;;2.10;1.20;;;9.60;58.50;;;;;;5042739;28;46727;-63
2022/12/30 13:24:53;;;;;;;2.27;1.27;;;9.70;58.30;;;;;;5044974;28;46285;-64
2022/12/30 13:27:28;;;;;;;2.20;1.40;;;9.70;58.00;;;;;;5048263;28;46419;-64
2022/12/30 13:29:56;;;;;;;2.30;1.43;;;9.80;57.70;;;;;;5044675;28;46929;-64
2022/12/30 13:32:47;;;;;;;4.50;1.97;;;9.80;57.20;;;;;;5048606;28;46282;-64
2022/12/30 13:35:43;;;;;;;5.83;2.73;;;9.90;57.20;;;;;;5045253;28;46545;-65
2022/12/30 13:38:24;;;;;;;18.40;2.70;;;9.90;57.10;;;;;;5043378;28;46319;-65
2022/12/30 13:41:04;;;;;;;2.90;1.67;;;9.80;57.10;;;;;;5048052;28;46762;-65
2022/12/30 13:43:33;;;;;;;2.20;1.40;;;9.90;57.20;;;;;;5043892;28;46399;-65
2022/12/30 13:46:01;;;;;;;2.50;1.40;;;10.00;56.10;;;;;;5047013;28;46381;-65
2022/12/30 13:48:30;;;;;;;4.60;1.67;;;10.10;55.90;;;;;;5044191;28;46483;-64
2022/12/30 13:51:05;;;;;;;3.07;1.90;;;10.10;55.50;;;;;;5041286;28;46567;-66
2022/12/30 13:53:46;;;;;;;7.50;4.63;;;10.20;55.20;;;;;;5044849;28;46419;-65
2022/12/30 13:56:20;;;;;;;13.37;5.43;;;10.20;55.00;;;;;;5042935;28;45853;-65
2022/12/30 13:58:52;;;;;;;10.97;4.93;;;10.20;55.10;;;;;;5046222;28;46322;-65
2022/12/30 14:01:28;;;;;;;6.57;3.50;;;10.20;55.00;;;;;;5045410;28;46548;-65
2022/12/30 14:04:10;;;;;;;7.63;3.70;;;10.20;54.10;;;;;;5043788;28;46987;-66
2022/12/30 14:06:48;;;;;;;24.13;7.03;;;10.10;55.00;;;;;;5043702;28;46597;-66
2022/12/30 14:09:16;;;;;;;5.73;3.50;;;10.10;54.90;;;;;;5045975;28;46457;-65
2022/12/30 14:12:04;;;;;;;7.83;3.80;;;10.00;55.20;;;;;;5042731;28;46483;-65
2022/12/30 14:14:35;;;;;;;9.70;4.10;;;9.90;56.40;;;;;;5043384;28;47017;-65